createdAt,value
2022-12-03T00:02:35.000Z,102728.84
2022-12-03T00:07:34.000Z,102729.75
2022-12-03T00:17:34.000Z,102730.79
2022-12-03T00:22:35.000Z,102732.75
2022-12-03T00:27:35.000Z,102733.22
2022-12-03T00:32:34.000Z,102739.54
2022-12-03T00:37:35.000Z,102738.65
2022-12-03T00:42:34.000Z,102743.04
2022-12-03T00:47:35.000Z,102744.22
2022-12-03T00:52:34.000Z,102746.5
2022-12-03T00:57:34.000Z,102749.61
2022-12-03T01:02:34.000Z,102749.61
2022-12-03T01:07:34.000Z,102752.86
2022-12-03T01:12:35.000Z,102760.81
2022-12-03T01:17:34.000Z,102763.9
2022-12-03T01:22:35.000Z,102765.02
2022-12-03T01:27:35.000Z,102767.68
2022-12-03T01:32:35.000Z,102776.15
2022-12-03T01:37:35.000Z,102773.18
2022-12-03T01:42:35.000Z,102773.34
2022-12-03T01:47:35.000Z,102773.18
2022-12-03T01:52:35.000Z,102775.61
2022-12-03T01:57:34.000Z,102783.73
2022-12-03T02:02:34.000Z,102789.2
2022-12-03T02:07:34.000Z,102783.56
2022-12-03T02:12:34.000Z,102783.56
2022-12-03T02:17:35.000Z,102794.3
2022-12-03T02:22:34.000Z,102797.33
2022-12-03T02:27:34.000Z,102801.49
2022-12-03T02:32:34.000Z,102805.45
2022-12-03T02:37:34.000Z,102808.39
2022-12-03T02:42:35.000Z,102807.54
2022-12-03T02:47:35.000Z,102808.09
2022-12-03T02:52:35.000Z,102806.62
2022-12-03T02:57:34.000Z,102805.14
2022-12-03T03:07:34.000Z,102824.88
2022-12-03T03:12:35.000Z,102825.55
2022-12-03T03:17:34.000Z,102825.55
2022-12-03T03:22:35.000Z,102821.99
2022-12-03T03:27:34.000Z,102832.93
2022-12-03T03:32:35.000Z,102836.33
2022-12-03T03:37:35.000Z,102839.18
2022-12-03T03:42:35.000Z,102836.27
2022-12-03T03:52:35.000Z,102848.82
2022-12-03T03:57:35.000Z,102853.48
2022-12-03T04:02:34.000Z,102858.01
2022-12-03T04:07:35.000Z,102860.88
2022-12-03T04:12:35.000Z,102860.88
2022-12-03T04:17:34.000Z,102860.23
2022-12-03T04:22:35.000Z,102859.88
2022-12-03T04:27:34.000Z,102866.9
2022-12-03T04:37:34.000Z,102871.01
2022-12-03T04:42:34.000Z,102871.71
2022-12-03T04:47:35.000Z,102871.38
2022-12-03T04:52:34.000Z,102875.23
2022-12-03T04:57:35.000Z,102877.77
2022-12-03T05:02:34.000Z,102877.77
2022-12-03T05:07:34.000Z,102882.83
2022-12-03T05:12:35.000Z,102885.08
2022-12-03T05:17:34.000Z,102885.35
2022-12-03T05:22:35.000Z,102884.84
2022-12-03T05:27:34.000Z,102890.91
2022-12-03T05:32:35.000Z,102893.06
2022-12-03T05:37:34.000Z,102887.58
2022-12-03T05:42:35.000Z,102899.13
2022-12-03T05:47:35.000Z,102896.65
2022-12-03T05:52:34.000Z,102894.95
2022-12-03T05:57:35.000Z,102899.45
2022-12-03T06:02:35.000Z,102898.83
2022-12-03T06:07:34.000Z,102898.83
2022-12-03T06:12:35.000Z,102898.47
2022-12-03T06:17:34.000Z,102895.16
2022-12-03T06:22:34.000Z,102895.46
2022-12-03T06:27:35.000Z,102895.65
2022-12-03T06:32:35.000Z,102894.3
2022-12-03T06:37:34.000Z,102891.93
2022-12-03T06:42:35.000Z,102887.2
2022-12-03T06:47:35.000Z,102891.44
2022-12-03T06:52:34.000Z,102889.73
2022-12-03T07:02:34.000Z,102890.15
2022-12-03T07:07:35.000Z,102897.6
2022-12-03T07:12:34.000Z,102893.52
2022-12-03T07:17:34.000Z,102892.13
2022-12-03T07:22:35.000Z,102890.44
2022-12-03T07:27:35.000Z,102892.54
2022-12-03T07:32:35.000Z,102889.15
2022-12-03T07:37:34.000Z,102891.2
2022-12-03T07:42:35.000Z,102891.2
2022-12-03T07:47:35.000Z,102883.27
2022-12-03T07:52:35.000Z,102879.16
2022-12-03T07:57:34.000Z,102880.37
2022-12-03T08:02:35.000Z,102877.87
2022-12-03T08:07:34.000Z,102878.28
2022-12-03T08:12:35.000Z,102877.23
2022-12-03T08:17:34.000Z,102877.87
2022-12-03T08:22:35.000Z,102874.85
2022-12-03T08:27:35.000Z,102873.3
2022-12-03T08:32:34.000Z,102869.09
2022-12-03T08:37:35.000Z,102859
2022-12-03T08:42:35.000Z,102847.45
2022-12-03T08:47:34.000Z,102856.21
2022-12-03T08:52:35.000Z,102854.92
2022-12-03T08:57:34.000Z,102854.92
2022-12-03T09:02:35.000Z,102857.81
2022-12-03T09:07:35.000Z,102852.83
2022-12-03T09:12:35.000Z,102856.53
2022-12-03T09:17:35.000Z,102859.58
2022-12-03T09:22:35.000Z,102853.43
2022-12-03T09:27:35.000Z,102852.42
2022-12-03T09:32:35.000Z,102850.81
2022-12-03T09:42:35.000Z,102852.82
2022-12-03T09:47:35.000Z,102856.58
2022-12-03T09:52:35.000Z,102849.04
2022-12-03T09:57:35.000Z,102849.04
2022-12-03T10:02:34.000Z,102854
2022-12-03T10:07:35.000Z,102853.38
2022-12-03T10:12:34.000Z,102851.41
2022-12-03T10:17:34.000Z,102846.68
2022-12-03T10:22:34.000Z,102847.47
2022-12-03T10:27:35.000Z,102845.77
2022-12-03T10:32:35.000Z,102844.1
2022-12-03T10:37:35.000Z,102840.19
2022-12-03T10:42:35.000Z,102847.28
2022-12-03T10:47:35.000Z,102846.34
2022-12-03T10:52:36.000Z,102844.7
2022-12-03T10:57:35.000Z,102842.88
2022-12-03T11:02:34.000Z,102846.65
2022-12-03T11:07:35.000Z,102845.56
2022-12-03T11:12:35.000Z,102845.56
2022-12-03T11:17:35.000Z,102849.38
2022-12-03T11:22:35.000Z,102853.46
2022-12-03T11:27:34.000Z,102854.74
2022-12-03T11:32:41.000Z,102854.05
2022-12-03T11:37:35.000Z,102851.32
2022-12-03T11:42:34.000Z,102848.5
2022-12-03T11:47:35.000Z,102848.17
2022-12-03T11:52:34.000Z,102847.9
2022-12-03T11:57:34.000Z,102846.93
2022-12-03T12:02:34.000Z,102846.82
2022-12-03T12:07:35.000Z,102845.61
2022-12-03T12:12:35.000Z,102843.81
2022-12-03T12:17:34.000Z,102846.83
2022-12-03T12:22:35.000Z,102846.83
2022-12-03T12:27:35.000Z,102843.39
2022-12-03T12:32:34.000Z,102852.36
2022-12-03T12:37:34.000Z,102855.21
2022-12-03T12:42:35.000Z,102853.37
2022-12-03T12:47:34.000Z,102855.04
2022-12-03T12:52:34.000Z,102856.59
2022-12-03T12:57:34.000Z,102860.43
2022-12-03T13:02:35.000Z,102857.46
2022-12-03T13:07:35.000Z,102858.99
2022-12-03T13:12:34.000Z,102858
2022-12-03T13:17:35.000Z,102856.59
2022-12-03T13:22:34.000Z,102853.43
2022-12-03T13:27:35.000Z,102847.6
2022-12-03T13:32:34.000Z,102864.75
2022-12-03T13:37:35.000Z,102864.75
2022-12-03T13:42:35.000Z,102865.17
2022-12-03T13:47:34.000Z,102867.44
2022-12-03T13:52:34.000Z,102867.26
2022-12-03T13:57:34.000Z,102868.66
2022-12-03T14:02:35.000Z,102871.19
2022-12-03T14:07:34.000Z,102870.18
2022-12-03T14:12:35.000Z,102875.07
2022-12-03T14:17:34.000Z,102872.84
2022-12-03T14:22:35.000Z,102873.5
2022-12-03T14:27:35.000Z,102874.02
2022-12-03T14:32:35.000Z,102879.87
2022-12-03T14:37:34.000Z,102883.14
2022-12-03T14:42:35.000Z,102876.65
2022-12-03T14:47:34.000Z,102876.65
2022-12-03T14:52:35.000Z,102879.38
2022-12-03T14:57:34.000Z,102883.74
2022-12-03T15:02:34.000Z,102885.25
2022-12-03T15:07:35.000Z,102889.94
2022-12-03T15:12:34.000Z,102887.86
2022-12-03T15:17:42.000Z,102890.15
2022-12-03T15:22:35.000Z,102889.7
2022-12-03T15:32:35.000Z,102894.67
2022-12-03T15:37:35.000Z,102892.79
2022-12-03T15:42:35.000Z,102896.41
2022-12-03T15:47:35.000Z,102896.41
2022-12-03T15:52:34.000Z,102900.41
2022-12-03T15:57:35.000Z,102902.1
2022-12-03T16:02:35.000Z,102904.41
2022-12-03T16:07:34.000Z,102911.75
2022-12-03T16:12:35.000Z,102907.53
2022-12-03T16:17:34.000Z,102916.09
2022-12-03T16:27:36.000Z,102930.02
2022-12-03T16:32:34.000Z,102936.62
2022-12-03T16:42:34.000Z,102933.13
2022-12-03T16:47:43.000Z,102937.96
2022-12-03T16:52:34.000Z,102938.35
2022-12-03T16:57:41.000Z,102932.7
2022-12-03T17:02:35.000Z,102930.7
2022-12-03T17:07:35.000Z,102935.09
2022-12-03T17:12:35.000Z,102935.09
2022-12-03T17:17:35.000Z,102935.22
2022-12-03T17:22:34.000Z,102932.59
2022-12-03T17:27:35.000Z,102933.49
2022-12-03T17:32:35.000Z,102938.14
2022-12-03T17:37:34.000Z,102936.11
2022-12-03T17:42:35.000Z,102937.83
2022-12-03T17:47:34.000Z,102936.83
2022-12-03T17:52:35.000Z,102946.54
2022-12-03T17:57:34.000Z,102942.7
2022-12-03T18:02:35.000Z,102943.82
2022-12-03T18:07:34.000Z,102941.2
2022-12-03T18:12:35.000Z,102941.36
2022-12-03T18:17:35.000Z,102946.75
2022-12-03T18:22:34.000Z,102946.75
2022-12-03T18:27:35.000Z,102948.75
2022-12-03T18:32:39.000Z,102951.98
2022-12-03T18:37:34.000Z,102953.93
2022-12-03T18:42:35.000Z,102956.78
2022-12-03T18:47:35.000Z,102955.09
2022-12-03T18:52:35.000Z,102955.09
2022-12-03T18:57:35.000Z,102964.64
2022-12-03T19:03:04.000Z,102965.92
2022-12-03T19:07:34.000Z,102966.83
2022-12-03T19:12:35.000Z,102967.54
2022-12-03T19:22:34.000Z,102971.08
2022-12-03T19:27:35.000Z,102965.52
2022-12-03T19:32:34.000Z,102964.38
2022-12-03T19:37:35.000Z,102973.46
2022-12-03T19:42:34.000Z,102976.39
2022-12-03T19:47:35.000Z,102973.06
2022-12-03T19:52:34.000Z,102977.82
2022-12-03T19:57:35.000Z,102977.77
2022-12-03T20:02:35.000Z,102976.5
2022-12-03T20:07:34.000Z,102975.95
2022-12-03T20:12:35.000Z,102973.47
2022-12-03T20:17:34.000Z,102978.18
2022-12-03T20:32:35.000Z,102983.43
2022-12-03T20:42:35.000Z,102987.67
2022-12-03T20:47:35.000Z,102987.67
2022-12-03T20:52:35.000Z,102983.86
2022-12-03T20:57:35.000Z,102985.61
2022-12-03T21:02:34.000Z,102989.24
2022-12-03T21:07:35.000Z,102983.17
2022-12-03T21:12:34.000Z,102982.14
2022-12-03T21:17:35.000Z,102980.78
2022-12-03T21:22:35.000Z,102968.66
2022-12-03T21:27:35.000Z,102976.06
2022-12-03T21:32:35.000Z,102979.03
2022-12-03T21:37:34.000Z,102982.2
2022-12-03T21:42:47.000Z,102988.87
2022-12-03T21:47:34.000Z,102989.66
2022-12-03T21:52:35.000Z,102993.37
2022-12-03T21:57:34.000Z,102995.54
2022-12-03T22:07:34.000Z,102988.44
2022-12-03T22:12:35.000Z,102983.23
2022-12-03T22:17:34.000Z,102987.13
2022-12-03T22:22:35.000Z,102990.85
2022-12-03T22:27:34.000Z,102990.85
2022-12-03T22:32:35.000Z,102990.14
2022-12-03T22:37:35.000Z,102983.71
2022-12-03T22:42:34.000Z,102989.1
2022-12-03T22:47:34.000Z,102987.7
2022-12-03T22:52:35.000Z,102984.57
2022-12-03T22:57:34.000Z,102984.3
2022-12-03T23:07:35.000Z,102986.15
2022-12-03T23:12:34.000Z,102992.05
2022-12-03T23:17:35.000Z,102994.87
2022-12-03T23:22:35.000Z,102993.71
2022-12-03T23:27:34.000Z,102991.68
2022-12-03T23:32:35.000Z,102992.12
2022-12-03T23:37:35.000Z,102990.61
2022-12-03T23:42:34.000Z,102990.61
2022-12-03T23:47:35.000Z,102994.6
2022-12-03T23:52:34.000Z,102994.93
2022-12-03T23:57:35.000Z,102993.47
